Time;durP1;ratioP1;P1;durP2;ratioP2;P2;SDS_P1;SDS_P2;PMS_P1;PMS_P2;Temp;Humidity;BMP_temperature;BMP_pressure;BME280_temperature;BME280_humidity;BME280_pressure;Samples;Min_cycle;Max_cycle;Signal;HPM_P1;HPM_P2
2022/09/02 00:00:59;;;;;;;;;;;;;;;;;;5050411;28;19916;-72
2022/09/02 00:03:25;;;;;;;;;;;;;;;;;;5050359;28;20384;-72
2022/09/02 00:05:51;;;;;;;;;;;;;;;;;;5053816;28;19943;-70
2022/09/02 00:08:17;;;;;;;;;;;;;;;;;;5054192;28;19932;-71
2022/09/02 00:10:43;;;;;;;;;;;;;;;;;;5054072;28;20003;-71
2022/09/02 00:13:08;;;;;;;;;;;;;;;;;;5054175;28;19990;-71
2022/09/02 00:15:34;;;;;;;;;;;;;;;;;;5053860;28;19909;-71
2022/09/02 00:18:00;;;;;;;;;;;;;;;;;;5053001;28;19909;-70
2022/09/02 00:20:27;;;;;;;;;;;;;;;;;;5053143;28;19923;-71
2022/09/02 00:22:52;;;;;;;;;;;;;;;;;;5053554;28;19962;-71
2022/09/02 00:25:18;;;;;;;;;;;;;;;;;;5053863;28;19909;-72
2022/09/02 00:27:44;;;;;;;;;;;;;;;;;;5054256;28;19913;-71
2022/09/02 00:30:10;;;;;;;;;;;;;;;;;;5053766;28;20387;-71
2022/09/02 00:32:36;;;;;;;;;;;;;;;;;;5053812;28;19920;-72
2022/09/02 00:35:02;;;;;;;;;;;;;;;;;;5053325;28;20400;-71
2022/09/02 00:37:28;;;;;;;;;;;;;;;;;;5053964;28;19912;-71
2022/09/02 00:39:54;;;;;;;;;;;;;;;;;;5053286;28;20082;-71
2022/09/02 00:42:20;;;;;;;;;;;;;;;;;;5053350;28;19913;-71
2022/09/02 00:44:46;;;;;;;;;;;;;;;;;;5052897;28;19909;-71
2022/09/02 00:47:11;;;;;;;;;;;;;;;;;;5053270;28;19948;-71
2022/09/02 00:49:37;;;;;;;;;;;;;;;;;;5052910;28;19932;-71
2022/09/02 00:52:03;;;;;;;;;;;;;;;;;;5053455;28;19954;-72
2022/09/02 00:54:29;;;;;;;;;;;;;;;;;;5052910;28;19974;-71
2022/09/02 00:56:55;;;;;;;;;;;;;;;;;;5053044;28;20370;-72
2022/09/02 00:59:21;;;;;;;;;;;;;;;;;;5053353;28;19917;-72
2022/09/02 01:01:47;;;;;;;;;;;;;;;;;;5052969;28;19943;-72
2022/09/02 01:04:13;;;;;;;;;;;;;;;;;;5052583;28;19916;-73
2022/09/02 01:06:39;;;;;;;;;;;;;;;;;;5052827;28;19910;-72
2022/09/02 01:09:07;;;;;;;;;;;;;;;;;;5053299;28;19944;-71
2022/09/02 01:11:33;;;;;;;;;;;;;;;;;;5053069;28;19935;-71
2022/09/02 01:13:59;;;;;;;;;;;;;;;;;;5053040;28;20293;-71
2022/09/02 01:16:26;;;;;;;;;;;;;;;;;;5051633;28;19909;-72
2022/09/02 01:18:51;;;;;;;;;;;;;;;;;;5052504;28;20417;-72
2022/09/02 01:21:17;;;;;;;;;;;;;;;;;;5052460;28;19999;-72
2022/09/02 01:23:43;;;;;;;;;;;;;;;;;;5052954;28;19908;-71
2022/09/02 01:26:09;;;;;;;;;;;;;;;;;;5052828;28;19909;-72
2022/09/02 01:28:36;;;;;;;;;;;;;;;;;;5052962;28;20357;-71
2022/09/02 01:31:01;;;;;;;;;;;;;;;;;;5052860;28;19916;-72
2022/09/02 01:33:27;;;;;;;;;;;;;;;;;;5052241;28;19999;-71
2022/09/02 01:35:53;;;;;;;;;;;;;;;;;;5052544;28;19909;-71
2022/09/02 01:38:19;;;;;;;;;;;;;;;;;;5052899;28;19913;-72
2022/09/02 01:40:45;;;;;;;;;;;;;;;;;;5051157;28;19908;-71
2022/09/02 01:43:11;;;;;;;;;;;;;;;;;;5052540;28;19948;-71
2022/09/02 01:45:37;;;;;;;;;;;;;;;;;;5052198;28;19913;-71
2022/09/02 01:48:03;;;;;;;;;;;;;;;;;;5050502;28;19909;-71
2022/09/02 01:50:29;;;;;;;;;;;;;;;;;;5051771;28;19959;-72
2022/09/02 01:52:55;;;;;;;;;;;;;;;;;;5052222;28;19908;-71
2022/09/02 01:55:21;;;;;;;;;;;;;;;;;;5051745;28;20305;-72
2022/09/02 01:57:47;;;;;;;;;;;;;;;;;;5052393;28;19920;-71
2022/09/02 02:00:13;;;;;;;;;;;;;;;;;;5052082;28;19916;-72
2022/09/02 02:02:39;;;;;;;;;;;;;;;;;;5052000;28;19908;-71
2022/09/02 02:05:05;;;;;;;;;;;;;;;;;;5051563;28;19909;-72
2022/09/02 02:07:31;;;;;;;;;;;;;;;;;;5051932;28;20281;-71
2022/09/02 02:09:57;;;;;;;;;;;;;;;;;;5052416;28;19937;-71
2022/09/02 02:12:23;;;;;;;;;;;;;;;;;;5051786;28;20297;-71
2022/09/02 02:14:48;;;;;;;;;;;;;;;;;;5051663;28;19912;-71
2022/09/02 02:17:14;;;;;;;;;;;;;;;;;;5051248;28;19916;-72
2022/09/02 02:19:40;;;;;;;;;;;;;;;;;;5051648;28;20017;-71
2022/09/02 02:22:06;;;;;;;;;;;;;;;;;;5051835;28;20051;-72
2022/09/02 02:24:32;;;;;;;;;;;;;;;;;;5051684;28;19970;-71
2022/09/02 02:26:58;;;;;;;;;;;;;;;;;;5052310;28;20023;-71
2022/09/02 02:29:24;;;;;;;;;;;;;;;;;;5051561;28;19908;-71
2022/09/02 02:31:50;;;;;;;;;;;;;;;;;;5051019;28;20332;-71
2022/09/02 02:34:16;;;;;;;;;;;;;;;;;;5051732;28;19967;-72
2022/09/02 02:36:41;;;;;;;;;;;;;;;;;;5051690;28;19936;-72
2022/09/02 02:39:08;;;;;;;;;;;;;;;;;;5051441;28;20011;-71
2022/09/02 02:41:34;;;;;;;;;;;;;;;;;;5051433;28;20684;-73
2022/09/02 02:44:00;;;;;;;;;;;;;;;;;;5051221;28;19919;-73
2022/09/02 02:46:26;;;;;;;;;;;;;;;;;;5051034;28;19913;-73
2022/09/02 02:48:52;;;;;;;;;;;;;;;;;;5051366;28;19917;-73
2022/09/02 02:51:19;;;;;;;;;;;;;;;;;;5051004;28;19916;-74
2022/09/02 02:53:44;;;;;;;;;;;;;;;;;;5051499;28;19917;-74
2022/09/02 02:56:10;;;;;;;;;;;;;;;;;;5051110;28;19920;-73
2022/09/02 02:58:36;;;;;;;;;;;;;;;;;;5050758;28;20411;-73
2022/09/02 03:01:02;;;;;;;;;;;;;;;;;;5050405;28;19916;-70
2022/09/02 03:03:28;;;;;;;;;;;;;;;;;;5051242;28;19995;-70
2022/09/02 03:05:54;;;;;;;;;;;;;;;;;;5051159;28;19909;-73
2022/09/02 03:08:20;;;;;;;;;;;;;;;;;;5051155;28;19912;-73
2022/09/02 03:10:46;;;;;;;;;;;;;;;;;;5051203;28;20011;-73
2022/09/02 03:13:13;;;;;;;;;;;;;;;;;;5050913;28;20291;-73
2022/09/02 03:15:39;;;;;;;;;;;;;;;;;;5050520;28;20369;-73
2022/09/02 03:18:05;;;;;;;;;;;;;;;;;;5050830;28;19931;-73
2022/09/02 03:20:31;;;;;;;;;;;;;;;;;;5050984;28;19923;-73
2022/09/02 03:22:57;;;;;;;;;;;;;;;;;;5051113;28;20003;-72
2022/09/02 03:25:23;;;;;;;;;;;;;;;;;;5050722;28;19935;-72
2022/09/02 03:27:49;;;;;;;;;;;;;;;;;;5050985;28;19913;-72
2022/09/02 03:30:15;;;;;;;;;;;;;;;;;;5050772;28;19909;-73
2022/09/02 03:32:41;;;;;;;;;;;;;;;;;;5050654;28;19909;-72
2022/09/02 03:35:07;;;;;;;;;;;;;;;;;;5051190;28;19935;-73
2022/09/02 03:37:33;;;;;;;;;;;;;;;;;;5050607;28;19923;-73
2022/09/02 03:39:59;;;;;;;;;;;;;;;;;;5052771;28;19943;-73
2022/09/02 03:42:25;;;;;;;;;;;;;;;;;;5054692;28;20650;-73
2022/09/02 03:44:51;;;;;;;;;;;;;;;;;;5054161;28;19948;-73
2022/09/02 03:47:20;;;;;;;;;;;;;;;;;;5054754;28;19940;-73
2022/09/02 03:49:46;;;;;;;;;;;;;;;;;;5048131;28;19960;-73
2022/09/02 03:52:12;;;;;;;;;;;;;;;;;;5048123;28;19959;-73
2022/09/02 03:54:38;;;;;;;;;;;;;;;;;;5054954;28;19921;-73
2022/09/02 03:57:04;;;;;;;;;;;;;;;;;;5054375;28;19917;-73
2022/09/02 03:59:30;;;;;;;;;;;;;;;;;;5054048;28;19963;-73
2022/09/02 04:01:56;;;;;;;;;;;;;;;;;;5054350;28;20384;-72
2022/09/02 04:04:22;;;;;;;;;;;;;;;;;;5054076;28;19916;-72
2022/09/02 04:06:47;;;;;;;;;;;;;;;;;;5054141;28;19916;-72
2022/09/02 04:09:13;;;;;;;;;;;;;;;;;;5054861;28;20270;-71
2022/09/02 04:11:42;;;;;;;;;;;;;;;;;;5053984;28;19908;-71
2022/09/02 04:14:08;;;;;;;;;;;;;;;;;;5053332;28;20420;-73
2022/09/02 04:16:34;;;;;;;;;;;;;;;;;;5054627;28;19909;-73
2022/09/02 04:19:00;;;;;;;;;;;;;;;;;;5054129;28;20007;-72
2022/09/02 04:21:26;;;;;;;;;;;;;;;;;;5054117;28;19936;-71
2022/09/02 04:23:52;;;;;;;;;;;;;;;;;;5053862;28;20486;-72
2022/09/02 04:26:18;;;;;;;;;;;;;;;;;;5053852;28;20373;-73
2022/09/02 04:28:44;;;;;;;;;;;;;;;;;;5053294;28;20392;-73
2022/09/02 04:31:10;;;;;;;;;;;;;;;;;;5053879;28;20439;-72
2022/09/02 04:33:36;;;;;;;;;;;;;;;;;;5053907;28;19912;-72
2022/09/02 04:36:02;;;;;;;;;;;;;;;;;;5053713;28;20408;-72
2022/09/02 04:38:28;;;;;;;;;;;;;;;;;;5053772;28;19912;-73
2022/09/02 04:40:54;;;;;;;;;;;;;;;;;;5053718;28;19913;-72
2022/09/02 04:43:20;;;;;;;;;;;;;;;;;;5053179;28;19936;-73
2022/09/02 04:45:46;;;;;;;;;;;;;;;;;;5053699;28;19919;-73
2022/09/02 04:48:12;;;;;;;;;;;;;;;;;;5053298;28;19909;-72
2022/09/02 04:50:38;;;;;;;;;;;;;;;;;;5052544;28;19909;-74
2022/09/02 04:53:04;;;;;;;;;;;;;;;;;;5053797;28;20331;-73
2022/09/02 04:55:29;;;;;;;;;;;;;;;;;;5053132;28;19920;-73
2022/09/02 04:57:55;;;;;;;;;;;;;;;;;;5046403;28;20350;-73
2022/09/02 05:00:21;;;;;;;;;;;;;;;;;;5053441;28;20286;-72
2022/09/02 05:02:47;;;;;;;;;;;;;;;;;;5052897;28;20007;-72
2022/09/02 05:05:13;;;;;;;;;;;;;;;;;;5052988;28;19909;-72
2022/09/02 05:07:39;;;;;;;;;;;;;;;;;;5053578;28;19916;-72
2022/09/02 05:10:05;;;;;;;;;;;;;;;;;;5053186;28;19909;-72
2022/09/02 05:12:31;;;;;;;;;;;;;;;;;;5052859;28;19909;-72
2022/09/02 05:14:59;;;;;;;;;;;;;;;;;;5052900;28;20357;-72
2022/09/02 05:17:25;;;;;;;;;;;;;;;;;;5053485;28;19916;-72
2022/09/02 05:19:51;;;;;;;;;;;;;;;;;;5052823;28;19921;-72
2022/09/02 05:22:18;;;;;;;;;;;;;;;;;;5052950;28;20003;-72
2022/09/02 05:24:44;;;;;;;;;;;;;;;;;;5052764;28;19991;-73
2022/09/02 05:27:10;;;;;;;;;;;;;;;;;;5052606;28;20003;-71
2022/09/02 05:29:36;;;;;;;;;;;;;;;;;;5053141;28;19954;-72
2022/09/02 05:32:03;;;;;;;;;;;;;;;;;;5052500;28;19940;-71
2022/09/02 05:34:28;;;;;;;;;;;;;;;;;;5052382;28;19909;-72
2022/09/02 05:36:55;;;;;;;;;;;;;;;;;;5052860;28;19912;-72
2022/09/02 05:39:21;;;;;;;;;;;;;;;;;;5052489;28;19917;-71
2022/09/02 05:41:47;;;;;;;;;;;;;;;;;;5052270;28;19963;-72
2022/09/02 05:44:12;;;;;;;;;;;;;;;;;;5052080;28;19919;-72
2022/09/02 05:46:38;;;;;;;;;;;;;;;;;;5052231;28;19908;-72
2022/09/02 05:49:05;;;;;;;;;;;;;;;;;;5052278;28;19947;-72
2022/09/02 05:51:31;;;;;;;;;;;;;;;;;;5052381;28;20385;-71
2022/09/02 05:53:56;;;;;;;;;;;;;;;;;;5052217;28;19947;-72
2022/09/02 05:56:22;;;;;;;;;;;;;;;;;;5051870;28;19916;-72
2022/09/02 05:58:48;;;;;;;;;;;;;;;;;;5052016;28;19928;-71
2022/09/02 06:01:14;;;;;;;;;;;;;;;;;;5052515;28;19908;-71
2022/09/02 06:03:40;;;;;;;;;;;;;;;;;;5051617;28;19948;-72
2022/09/02 06:06:06;;;;;;;;;;;;;;;;;;5051430;28;20369;-71
2022/09/02 06:08:32;;;;;;;;;;;;;;;;;;5051227;28;19913;-71
2022/09/02 06:11:00;;;;;;;;;;;;;;;;;;5051153;28;20774;-72
2022/09/02 06:13:26;;;;;;;;;;;;;;;;;;5051488;28;20357;-72
2022/09/02 06:15:52;;;;;;;;;;;;;;;;;;5051656;28;20008;-72
2022/09/02 06:18:18;;;;;;;;;;;;;;;;;;5050932;28;19909;-72
2022/09/02 06:20:44;;;;;;;;;;;;;;;;;;5051407;28;19920;-72
2022/09/02 06:23:10;;;;;;;;;;;;;;;;;;5051186;28;19909;-72
2022/09/02 06:25:36;;;;;;;;;;;;;;;;;;5050868;28;20378;-73
2022/09/02 06:28:01;;;;;;;;;;;;;;;;;;5051300;28;20007;-72
2022/09/02 06:30:27;;;;;;;;;;;;;;;;;;5051174;28;20007;-72
2022/09/02 06:32:54;;;;;;;;;;;;;;;;;;5050866;28;20275;-73
2022/09/02 06:35:20;;;;;;;;;;;;;;;;;;5051157;28;20380;-72
2022/09/02 06:37:46;;;;;;;;;;;;;;;;;;5050498;28;20007;-72
2022/09/02 06:40:13;;;;;;;;;;;;;;;;;;5050517;28;19921;-72
2022/09/02 06:42:38;;;;;;;;;;;;;;;;;;5050153;28;20003;-72
2022/09/02 06:45:04;;;;;;;;;;;;;;;;;;5050765;28;20000;-72
2022/09/02 06:47:30;;;;;;;;;;;;;;;;;;5050351;28;19915;-73
2022/09/02 06:49:56;;;;;;;;;;;;;;;;;;5050767;28;20045;-72
2022/09/02 06:52:22;;;;;;;;;;;;;;;;;;5050306;28;19909;-72
2022/09/02 06:54:49;;;;;;;;;;;;;;;;;;5050515;28;19928;-73
2022/09/02 06:57:15;;;;;;;;;;;;;;;;;;5050887;28;19912;-73
2022/09/02 06:59:41;;;;;;;;;;;;;;;;;;5050459;28;19939;-72
2022/09/02 07:02:07;;;;;;;;;;;;;;;;;;5050520;28;20630;-72
2022/09/02 07:07:25;;;;;;;;;;;;;;;;;;5008162;28;20350;-73
2022/09/02 07:09:51;;;;;;;;;;;;;;;;;;5008055;28;20414;-73
2022/09/02 07:12:18;;;;;;;;;;;;;;;;;;5008293;28;19910;-72
2022/09/02 07:14:44;;;;;;;;;;;;;;;;;;5008177;28;19948;-72
2022/09/02 07:17:10;;;;;;;;;;;;;;;;;;5008727;28;19973;-72
2022/09/02 07:19:36;;;;;;;;;;;;;;;;;;5008187;28;19928;-72
2022/09/02 07:22:02;;;;;;;;;;;;;;;;;;5007571;28;19909;-72
2022/09/02 07:24:27;;;;;;;;;;;;;;;;;;5008292;28;19909;-73
2022/09/02 07:26:53;;;;;;;;;;;;;;;;;;5007981;28;19916;-72
2022/09/02 07:29:19;;;;;;;;;;;;;;;;;;5008881;28;19909;-72
2022/09/02 07:31:45;;;;;;;;;;;;;;;;;;4992673;28;19955;-72
2022/09/02 07:34:13;;;;;;;;;;;;;;;;;;5008755;28;20017;-72
2022/09/02 07:36:39;;;;;;;;;;;;;;;;;;5007901;28;19959;-72
2022/09/02 07:39:05;;;;;;;;;;;;;;;;;;5008497;28;19922;-72
2022/09/02 07:41:31;;;;;;;;;;;;;;;;;;5009070;28;19910;-74
2022/09/02 07:43:57;;;;;;;;;;;;;;;;;;5025144;28;19961;-73
2022/09/02 07:46:23;;;;;;;;;;;;;;;;;;5050591;28;19917;-71
2022/09/02 07:48:49;;;;;;;;;;;;;;;;;;5050642;28;19909;-72
2022/09/02 07:51:15;;;;;;;;;;;;;;;;;;5048805;28;19908;-72
2022/09/02 07:53:42;;;;;;;;;;;;;;;;;;5050303;28;19970;-72
2022/09/02 07:56:08;;;;;;;;;;;;;;;;;;5050899;28;19920;-73
2022/09/02 07:58:34;;;;;;;;;;;;;;;;;;5050572;28;19920;-72
2022/09/02 08:01:00;;;;;;;;;;;;;;;;;;5050725;28;20308;-73
2022/09/02 08:03:26;;;;;;;;;;;;;;;;;;5050632;28;19963;-73
2022/09/02 08:05:51;;;;;;;;;;;;;;;;;;5050183;28;19954;-73
2022/09/02 08:08:20;;;;;;;;;;;;;;;;;;5050469;28;19940;-72
2022/09/02 08:10:46;;;;;;;;;;;;;;;;;;5050240;28;19963;-73
2022/09/02 08:13:12;;;;;;;;;;;;;;;;;;5050335;28;19909;-72
2022/09/02 08:15:38;;;;;;;;;;;;;;;;;;5051092;28;19909;-73
2022/09/02 08:18:04;;;;;;;;;;;;;;;;;;5049052;28;19913;-73
2022/09/02 08:20:30;;;;;;;;;;;;;;;;;;5048871;28;20324;-72
2022/09/02 08:22:56;;;;;;;;;;;;;;;;;;5050301;28;19959;-73
2022/09/02 08:25:22;;;;;;;;;;;;;;;;;;5052102;28;20300;-73
2022/09/02 08:27:48;;;;;;;;;;;;;;;;;;5053895;28;19913;-73
2022/09/02 08:30:14;;;;;;;;;;;;;;;;;;5053689;28;19936;-73
2022/09/02 08:32:40;;;;;;;;;;;;;;;;;;5053482;28;20309;-73
2022/09/02 08:35:05;;;;;;;;;;;;;;;;;;5052772;28;19920;-73
2022/09/02 08:37:31;;;;;;;;;;;;;;;;;;5053183;28;19935;-73
2022/09/02 08:39:57;;;;;;;;;;;;;;;;;;5053565;28;19917;-73
2022/09/02 08:42:23;;;;;;;;;;;;;;;;;;5053245;28;20520;-73
2022/09/02 08:44:50;;;;;;;;;;;;;;;;;;5052977;28;19932;-73
2022/09/02 08:47:16;;;;;;;;;;;;;;;;;;5052830;28;19916;-73
2022/09/02 08:49:42;;;;;;;;;;;;;;;;;;5052671;28;19908;-72
2022/09/02 08:52:08;;;;;;;;;;;;;;;;;;5053074;28;19913;-72
2022/09/02 08:54:34;;;;;;;;;;;;;;;;;;5052778;28;19928;-73
2022/09/02 08:57:00;;;;;;;;;;;;;;;;;;5052663;28;20361;-72
2022/09/02 08:59:26;;;;;;;;;;;;;;;;;;5046638;28;19917;-72
2022/09/02 09:01:52;;;;;;;;;;;;;;;;;;5053138;28;19916;-72
2022/09/02 09:04:17;;;;;;;;;;;;;;;;;;5051018;28;20288;-72
2022/09/02 09:06:43;;;;;;;;;;;;;;;;;;5052639;28;19913;-73
2022/09/02 09:09:09;;;;;;;;;;;;;;;;;;5052806;28;20350;-73
2022/09/02 09:11:35;;;;;;;;;;;;;;;;;;5052940;28;20011;-73
2022/09/02 09:14:01;;;;;;;;;;;;;;;;;;5052005;28;19958;-72
2022/09/02 09:16:27;;;;;;;;;;;;;;;;;;5052176;28;19987;-72
2022/09/02 09:18:53;;;;;;;;;;;;;;;;;;5051925;28;19916;-73
2022/09/02 09:21:19;;;;;;;;;;;;;;;;;;5046232;28;19909;-72
2022/09/02 09:23:45;;;;;;;;;;;;;;;;;;5052295;28;20384;-72
2022/09/02 09:26:11;;;;;;;;;;;;;;;;;;5051598;28;20313;-73
2022/09/02 09:28:39;;;;;;;;;;;;;;;;;;5052453;28;19908;-72
2022/09/02 09:31:05;;;;;;;;;;;;;;;;;;5052549;28;19924;-72
2022/09/02 09:33:31;;;;;;;;;;;;;;;;;;5050056;28;20134;-73
2022/09/02 09:35:57;;;;;;;;;;;;;;;;;;5052013;28;19923;-72
2022/09/02 09:38:23;;;;;;;;;;;;;;;;;;5050982;28;19990;-73
2022/09/02 09:40:50;;;;;;;;;;;;;;;;;;5050569;28;19913;-73
2022/09/02 09:43:16;;;;;;;;;;;;;;;;;;5050034;28;20023;-73
2022/09/02 09:45:42;;;;;;;;;;;;;;;;;;5052241;28;19908;-72
2022/09/02 09:48:08;;;;;;;;;;;;;;;;;;5051258;28;19909;-73
2022/09/02 09:50:34;;;;;;;;;;;;;;;;;;5051964;28;19959;-73
2022/09/02 09:53:02;;;;;;;;;;;;;;;;;;5051341;28;20204;-72
2022/09/02 09:55:28;;;;;;;;;;;;;;;;;;5051489;28;20431;-72
2022/09/02 09:57:54;;;;;;;;;;;;;;;;;;5051755;28;20011;-72
2022/09/02 10:00:20;;;;;;;;;;;;;;;;;;5050638;28;19920;-71
2022/09/02 10:02:46;;;;;;;;;;;;;;;;;;5051695;28;20012;-72
2022/09/02 10:05:12;;;;;;;;;;;;;;;;;;5051652;28;19932;-72
2022/09/02 10:07:38;;;;;;;;;;;;;;;;;;5044946;28;19995;-73
2022/09/02 10:10:04;;;;;;;;;;;;;;;;;;5051044;28;20003;-72
2022/09/02 10:12:30;;;;;;;;;;;;;;;;;;5051324;28;19909;-72
2022/09/02 10:14:56;;;;;;;;;;;;;;;;;;5051240;28;19909;-72
2022/09/02 10:17:22;;;;;;;;;;;;;;;;;;5050824;28;19909;-72
2022/09/02 10:19:48;;;;;;;;;;;;;;;;;;5050969;28;19974;-72
2022/09/02 10:22:14;;;;;;;;;;;;;;;;;;5051210;28;19912;-72
2022/09/02 10:24:39;;;;;;;;;;;;;;;;;;5049610;28;19954;-73
2022/09/02 10:27:07;;;;;;;;;;;;;;;;;;5051061;28;19919;-73
2022/09/02 10:29:33;;;;;;;;;;;;;;;;;;5050753;28;19908;-73
2022/09/02 10:31:59;;;;;;;;;;;;;;;;;;5050495;28;19919;-72
2022/09/02 10:34:25;;;;;;;;;;;;;;;;;;5050936;28;19920;-73
2022/09/02 10:36:51;;;;;;;;;;;;;;;;;;5050657;28;19924;-73
2022/09/02 10:39:17;;;;;;;;;;;;;;;;;;5050349;28;20012;-72
2022/09/02 10:41:44;;;;;;;;;;;;;;;;;;5050756;28;19909;-73
2022/09/02 10:44:10;;;;;;;;;;;;;;;;;;5050750;28;19909;-73
2022/09/02 10:46:36;;;;;;;;;;;;;;;;;;5050483;28;20007;-72
2022/09/02 10:49:02;;;;;;;;;;;;;;;;;;5049644;28;20384;-72
2022/09/02 10:51:28;;;;;;;;;;;;;;;;;;5048464;28;19955;-73
2022/09/02 10:53:54;;;;;;;;;;;;;;;;;;5046409;28;19966;-72
2022/09/02 10:56:20;;;;;;;;;;;;;;;;;;5050795;28;20369;-72
2022/09/02 10:58:47;;;;;;;;;;;;;;;;;;5050057;28;19912;-72
2022/09/02 11:01:14;;;;;;;;;;;;;;;;;;5050425;28;19999;-72
2022/09/02 11:03:41;;;;;;;;;;;;;;;;;;5045744;28;19912;-73
2022/09/02 11:06:07;;;;;;;;;;;;;;;;;;5050684;28;19948;-73
2022/09/02 11:08:33;;;;;;;;;;;;;;;;;;5050716;28;19909;-72
2022/09/02 11:10:59;;;;;;;;;;;;;;;;;;5050565;28;19955;-72
2022/09/02 11:13:25;;;;;;;;;;;;;;;;;;5049432;28;19988;-73
2022/09/02 11:15:51;;;;;;;;;;;;;;;;;;5050677;28;19913;-73
2022/09/02 11:18:17;;;;;;;;;;;;;;;;;;5050105;28;19909;-73
2022/09/02 11:20:43;;;;;;;;;;;;;;;;;;5050102;28;20389;-73
2022/09/02 11:23:09;;;;;;;;;;;;;;;;;;5050342;28;19909;-73
2022/09/02 11:25:35;;;;;;;;;;;;;;;;;;5050100;28;19909;-73
2022/09/02 11:28:01;;;;;;;;;;;;;;;;;;5050269;28;20277;-73
2022/09/02 11:30:27;;;;;;;;;;;;;;;;;;5050123;28;19919;-73
2022/09/02 11:32:53;;;;;;;;;;;;;;;;;;5049875;28;19912;-72
2022/09/02 11:35:19;;;;;;;;;;;;;;;;;;5050200;28;19908;-73
2022/09/02 11:37:45;;;;;;;;;;;;;;;;;;5046070;28;20404;-73
2022/09/02 11:40:12;;;;;;;;;;;;;;;;;;5049455;28;19917;-72
2022/09/02 11:42:39;;;;;;;;;;;;;;;;;;5050119;28;19908;-73
2022/09/02 11:45:05;;;;;;;;;;;;;;;;;;5048625;28;19913;-72
2022/09/02 11:47:31;;;;;;;;;;;;;;;;;;5049892;28;19913;-73
2022/09/02 11:49:57;;;;;;;;;;;;;;;;;;5049962;28;19909;-73
2022/09/02 11:52:23;;;;;;;;;;;;;;;;;;5050345;28;20362;-73
2022/09/02 11:54:49;;;;;;;;;;;;;;;;;;5049460;28;20015;-71
2022/09/02 11:57:15;;;;;;;;;;;;;;;;;;5049490;28;19917;-73
2022/09/02 11:59:41;;;;;;;;;;;;;;;;;;5050336;28;19917;-73
2022/09/02 12:02:07;;;;;;;;;;;;;;;;;;5053426;28;20361;-72
2022/09/02 12:04:33;;;;;;;;;;;;;;;;;;5054051;28;19909;-72
2022/09/02 12:06:59;;;;;;;;;;;;;;;;;;5053675;28;20423;-72
2022/09/02 12:09:25;;;;;;;;;;;;;;;;;;5053098;28;19915;-73
2022/09/02 12:11:53;;;;;;;;;;;;;;;;;;5052983;28;19908;-72
2022/09/02 12:14:19;;;;;;;;;;;;;;;;;;5053330;28;19916;-73
2022/09/02 12:16:45;;;;;;;;;;;;;;;;;;5053610;28;19909;-73
2022/09/02 12:19:12;;;;;;;;;;;;;;;;;;5053435;28;20370;-73
2022/09/02 12:21:38;;;;;;;;;;;;;;;;;;5053111;28;19909;-73
2022/09/02 12:24:04;;;;;;;;;;;;;;;;;;5046820;28;20137;-73
2022/09/02 12:26:29;;;;;;;;;;;;;;;;;;5052724;28;20393;-73
2022/09/02 12:28:56;;;;;;;;;;;;;;;;;;5047684;28;19913;-73
2022/09/02 12:31:22;;;;;;;;;;;;;;;;;;5052873;28;19913;-73
2022/09/02 12:33:48;;;;;;;;;;;;;;;;;;5052899;28;19913;-72
2022/09/02 12:36:14;;;;;;;;;;;;;;;;;;5053430;28;20000;-72
2022/09/02 12:38:40;;;;;;;;;;;;;;;;;;5053359;28;19924;-73
2022/09/02 12:41:07;;;;;;;;;;;;;;;;;;5051995;28;19948;-74
2022/09/02 12:43:34;;;;;;;;;;;;;;;;;;5052767;28;19913;-73
2022/09/02 12:46:00;;;;;;;;;;;;;;;;;;5052827;28;19931;-72
2022/09/02 12:48:26;;;;;;;;;;;;;;;;;;5053622;28;20583;-73
2022/09/02 12:50:53;;;;;;;;;;;;;;;;;;5053217;28;19913;-73
2022/09/02 12:53:19;;;;;;;;;;;;;;;;;;5052865;28;19916;-73
2022/09/02 12:55:45;;;;;;;;;;;;;;;;;;5052263;28;19917;-73
2022/09/02 12:58:11;;;;;;;;;;;;;;;;;;5053563;28;19909;-73
2022/09/02 13:00:37;;;;;;;;;;;;;;;;;;5053014;28;19917;-73
2022/09/02 13:03:03;;;;;;;;;;;;;;;;;;5052685;28;19908;-72
2022/09/02 13:05:29;;;;;;;;;;;;;;;;;;5053062;28;20293;-73
2022/09/02 13:07:55;;;;;;;;;;;;;;;;;;5052957;28;19913;-73
2022/09/02 13:10:21;;;;;;;;;;;;;;;;;;5045915;28;19919;-73
2022/09/02 13:12:47;;;;;;;;;;;;;;;;;;5052395;28;20007;-73
2022/09/02 13:15:13;;;;;;;;;;;;;;;;;;5052992;28;20274;-73
2022/09/02 13:17:38;;;;;;;;;;;;;;;;;;5052922;28;19912;-73
2022/09/02 13:20:04;;;;;;;;;;;;;;;;;;5052765;28;19917;-73
2022/09/02 13:22:31;;;;;;;;;;;;;;;;;;5052310;28;19916;-73
2022/09/02 13:24:57;;;;;;;;;;;;;;;;;;5052040;28;20326;-74
2022/09/02 13:27:23;;;;;;;;;;;;;;;;;;5052311;28;20011;-73
2022/09/02 13:29:48;;;;;;;;;;;;;;;;;;5052669;28;20297;-72
2022/09/02 13:32:15;;;;;;;;;;;;;;;;;;5052440;28;19912;-74
2022/09/02 13:34:41;;;;;;;;;;;;;;;;;;5052899;28;19909;-73
2022/09/02 13:37:09;;;;;;;;;;;;;;;;;;5053062;28;19924;-73
2022/09/02 13:39:35;;;;;;;;;;;;;;;;;;5044396;28;20385;-73
2022/09/02 13:42:01;;;;;;;;;;;;;;;;;;5052893;28;19909;-73
2022/09/02 13:44:30;;;;;;;;;;;;;;;;;;5052356;28;19916;-73
2022/09/02 13:46:55;;;;;;;;;;;;;;;;;;5052503;28;19970;-73
2022/09/02 13:49:22;;;;;;;;;;;;;;;;;;5053026;28;20358;-73
2022/09/02 13:51:50;;;;;;;;;;;;;;;;;;5052546;28;19966;-73
2022/09/02 13:54:16;;;;;;;;;;;;;;;;;;5051555;28;19983;-73
2022/09/02 13:56:41;;;;;;;;;;;;;;;;;;5052469;28;20358;-73
2022/09/02 13:59:07;;;;;;;;;;;;;;;;;;5052438;28;19955;-73
2022/09/02 14:01:33;;;;;;;;;;;;;;;;;;5051702;28;20357;-73
2022/09/02 14:03:59;;;;;;;;;;;;;;;;;;5052416;28;20513;-73
2022/09/02 14:06:25;;;;;;;;;;;;;;;;;;5052299;28;19909;-74
2022/09/02 14:08:51;;;;;;;;;;;;;;;;;;5051737;28;19948;-73
2022/09/02 14:11:17;;;;;;;;;;;;;;;;;;5051975;28;19909;-73
2022/09/02 14:13:43;;;;;;;;;;;;;;;;;;5051882;28;20409;-73
2022/09/02 14:16:09;;;;;;;;;;;;;;;;;;5051646;28;19912;-73
2022/09/02 14:18:35;;;;;;;;;;;;;;;;;;5051736;28;19913;-73
2022/09/02 14:21:00;;;;;;;;;;;;;;;;;;5052087;28;19967;-73
2022/09/02 14:23:26;;;;;;;;;;;;;;;;;;5051002;28;19909;-73
2022/09/02 14:25:52;;;;;;;;;;;;;;;;;;5051572;28;19916;-72
2022/09/02 14:28:18;;;;;;;;;;;;;;;;;;5051405;28;19909;-74
2022/09/02 14:30:44;;;;;;;;;;;;;;;;;;5044434;28;19909;-73
2022/09/02 14:33:10;;;;;;;;;;;;;;;;;;5051297;28;19943;-73
2022/09/02 14:35:36;;;;;;;;;;;;;;;;;;5051312;28;19961;-74
2022/09/02 14:38:02;;;;;;;;;;;;;;;;;;5050694;28;19908;-73
2022/09/02 14:40:28;;;;;;;;;;;;;;;;;;5051113;28;19927;-73
2022/09/02 14:42:54;;;;;;;;;;;;;;;;;;5050851;28;20388;-74
2022/09/02 14:45:20;;;;;;;;;;;;;;;;;;5050838;28;20058;-73
2022/09/02 14:47:46;;;;;;;;;;;;;;;;;;5050791;28;19916;-74
2022/09/02 14:50:17;;;;;;;;;;;;;;;;;;5051106;28;19913;-73
2022/09/02 14:52:43;;;;;;;;;;;;;;;;;;5050735;28;19915;-74
2022/09/02 14:55:09;;;;;;;;;;;;;;;;;;5050448;28;19920;-73
2022/09/02 14:57:37;;;;;;;;;;;;;;;;;;5050787;28;19916;-74
2022/09/02 15:00:04;;;;;;;;;;;;;;;;;;5050510;28;19924;-73
2022/09/02 15:02:31;;;;;;;;;;;;;;;;;;5050911;28;19912;-74
2022/09/02 15:04:56;;;;;;;;;;;;;;;;;;5050202;28;19913;-73
2022/09/02 15:07:22;;;;;;;;;;;;;;;;;;5051071;28;20420;-73
2022/09/02 15:09:50;;;;;;;;;;;;;;;;;;5050566;28;19912;-73
2022/09/02 15:12:18;;;;;;;;;;;;;;;;;;5050476;28;19913;-73
2022/09/02 15:14:44;;;;;;;;;;;;;;;;;;5050370;28;19908;-73
2022/09/02 15:17:09;;;;;;;;;;;;;;;;;;5051013;28;19966;-73
2022/09/02 15:19:35;;;;;;;;;;;;;;;;;;5049833;28;19917;-73
2022/09/02 15:22:01;;;;;;;;;;;;;;;;;;5049859;28;19916;-71
2022/09/02 15:24:27;;;;;;;;;;;;;;;;;;5050973;28;19949;-73
2022/09/02 15:26:53;;;;;;;;;;;;;;;;;;5050373;28;20319;-73
2022/09/02 15:29:19;;;;;;;;;;;;;;;;;;5050028;28;19909;-73
2022/09/02 15:31:45;;;;;;;;;;;;;;;;;;5050361;28;19917;-74
2022/09/02 15:34:11;;;;;;;;;;;;;;;;;;5049755;28;19954;-73
2022/09/02 15:36:37;;;;;;;;;;;;;;;;;;5053742;28;19916;-74
2022/09/02 15:39:03;;;;;;;;;;;;;;;;;;5054475;28;19928;-72
2022/09/02 15:41:30;;;;;;;;;;;;;;;;;;5054054;28;20032;-73
2022/09/02 15:43:56;;;;;;;;;;;;;;;;;;5053978;28;19919;-73
2022/09/02 15:46:22;;;;;;;;;;;;;;;;;;5053903;28;19910;-73
2022/09/02 15:48:48;;;;;;;;;;;;;;;;;;5053703;28;20018;-74
2022/09/02 15:51:14;;;;;;;;;;;;;;;;;;5053728;28;20350;-73
2022/09/02 15:53:40;;;;;;;;;;;;;;;;;;5053851;28;19921;-73
2022/09/02 15:56:05;;;;;;;;;;;;;;;;;;5053241;28;19932;-73
2022/09/02 15:58:31;;;;;;;;;;;;;;;;;;5054079;28;19913;-73
2022/09/02 16:00:57;;;;;;;;;;;;;;;;;;5053704;28;19916;-73
2022/09/02 16:03:23;;;;;;;;;;;;;;;;;;5053774;28;19940;-73
2022/09/02 16:05:49;;;;;;;;;;;;;;;;;;5053692;28;19919;-73
2022/09/02 16:08:15;;;;;;;;;;;;;;;;;;5047517;28;19971;-73
2022/09/02 16:10:42;;;;;;;;;;;;;;;;;;5053928;28;20337;-72
2022/09/02 16:13:08;;;;;;;;;;;;;;;;;;5053424;28;19909;-72
2022/09/02 16:15:34;;;;;;;;;;;;;;;;;;5053528;28;19912;-73
2022/09/02 16:18:00;;;;;;;;;;;;;;;;;;5053107;28;19963;-74
2022/09/02 16:20:26;;;;;;;;;;;;;;;;;;5051718;28;19920;-65
2022/09/02 16:22:52;;;;;;;;;;;;;;;;;;5052897;28;20013;-66
2022/09/02 16:25:20;;;;;;;;;;;;;;;;;;5053469;28;19915;-66
2022/09/02 16:27:53;;;;;;;;;;;;;;;;;;5053296;28;19912;-66
2022/09/02 16:30:20;;;;;;;;;;;;;;;;;;5053606;28;19909;-65
2022/09/02 16:32:46;;;;;;;;;;;;;;;;;;5052665;28;19908;-65
2022/09/02 16:35:12;;;;;;;;;;;;;;;;;;5053300;28;19948;-66
2022/09/02 16:37:38;;;;;;;;;;;;;;;;;;5053155;28;20006;-66
2022/09/02 16:40:04;;;;;;;;;;;;;;;;;;5053612;28;19917;-67